Warning: Javascript must be enabled to use all the features on this page!


Page Loading - Please Wait...

Click to hideNews Bulletins
  • Have your voice heard. Have a few minutes? We're surveying users about their experience with Water Data for the Nation (WDFN). Please take a few minutes to complete our online survey.
  • See the Water Data for the Nation Blog for the latest news and updates.

Peak Streamflow for the Nation

USGS 06342500 MISSOURI RIVER AT BISMARCK, ND

Burleigh County, North Dakota
Hydrologic Unit Code 10130101
Latitude  46°48'51", Longitude 100°49'17" NAD83
Drainage area 186,400  square miles
Gage datum 1,619.64 feet above NAVD88
Output formats
Table
Graph
Tab-separated file
peakfq (watstore) format
Reselect output format
Water
Year
Date Gage
Height
(feet)
Stream-
flow
(cfs)
1881 1881-03-31 31.601,3,5  
1929 1929-06-10 8.822,3 122,0005
1930 1930-04-05 7.081,2 78,0005
1931 1931-06-10 5.31 47,2005
1932 1932-06-13 8.33 118,0005
1933 1933-06-21   88,8005
1934 1934-03-20 7.41 79,2005
1935 1935-07-13 13.15 116,0005
1936 1936-04-15   117,0005
1937 1937-06-18 12.65 98,9006
1938 1938-03-19 20.403 190,0006
1939 1939-03-28 22.20 222,0006
1940 1940-06-11 10.19 56,6006
1941 1941-06-11   51,6006
1942 1942-06-16 12.50 77,4006
1943 1943-04-03 21.862 282,0006
1944 1944-04-07 16.901 136,0006
1945 1945-06-30 10.902 73,4006
1946 1946-03-28 9.032 59,6006
1947 1947-03-29 21.80 262,0006
1948 1948-06-12 11.852 76,4006
1949 1949-04-06 16.212 157,0006
1950 1950-04-17 18.72 192,0006
1951 1951-04-05 16.002 130,0006
1952 1952-04-06 27.90 500,0006
1953 1953-06-24 10.772 78,2006
1954 1954-08-17 9.73 40,6006
1955 1955-05-14 9.08 48,1006
1956 1956-06-17 9.462 38,2006
1957 1957-05-13 7.742 26,7006
1958 1958-06-23 9.152 33,1006
1959 1959-09-08 7.652 23,7006
1960 1960-03-27 13.271 35,0006
1961 1961-04-02 7.872 24,8006
1962 1962-06-13 9.002 31,9006
1963 1963-04-25 7.742 30,2006
1964 1964-03-12 8.912 33,1006
1965 1965-05-20 8.572 34,8006
1966 1965-12-24 8.422 37,2006
1967 1967-08-23 10.022 41,4006
1968 1968-03-06 12.651 40,3006
1969 1969-04-08 11.242 49,3006
1970 1970-04-29 10.182 41,8006
1971 1971-05-27 10.632 42,7006
1972 1972-05-27 10.912 44,5006
1973 1973-01-25 11.541,2 31,8006
1974 1974-07-24 9.592 33,3006
1975 1975-07-13 14.24 68,9006
1976 1976-06-11 10.792 43,0006
1977 1976-12-02 9.602 37,1006
1978 1978-08-26 11.172 43,7006
1979 1979-04-19 12.372 54,9006
1980 1980-07-22 9.092 32,0006
1981 1981-07-18 9.552 34,3006
1982 1982-03-31 10.432 39,1006
1983 1983-03-15 10.772 41,1006
1984 1984-09-13 9.162 31,5006
1985 1985-02-03   34,0006
1986 1986-03-09 9.742 35,2006
1987 1987-02-25 13.921 35,0006
1988 1988-02-14 13.331 34,0006
1989 1989-02-05 13.121,2 26,5006
1990 1990-01-25 9.911,2 28,0006
1991 1991-04-19   32,5006
1992 1992-01-17 12.701 24,0006
1993 1993-07-24   26,0006
1994 1994-06-16   31,4006
1995 1995-09-06 11.132 43,4006
1996 1996-06-06 11.112 41,4006
1997 1997-07-25 13.982 59,5006
1998 1997-10-31 12.622 49,4006
1999 1999-03-20 12.221 33,6006
2000 2000-02-28 8.312 27,5006
2001 2000-11-11 8.292 27,6006
2002 2002-08-31 7.662 24,8006
2003 2003-02-25 10.592 25,0006
2004 2004-02-24 11.041,2 26,0006
2005 2005-05-08 6.822 21,4006
2006 2006-09-06 8.352 27,9006
2007 2007-06-07 6.412 19,0006
2008 2008-05-23 5.912 17,1006
2009 2009-03-24 16.111 30,0006
2010 2010-09-06 9.112 29,8006
2011 2011-06-25 19.052 155,0006
2012 2011-11-08 7.092 30,4006
2013 2013-06-04 6.452 28,8006
2014 2014-07-01 8.532 37,3006
2015 2015-04-28 6.542 26,7006
2016 2016-07-26 5.802 23,8006
2017 2017-08-15 9.052 36,6006
2018 2018-06-29 13.41 61,6006
2019 2019-09-21 11.852 51,6006
2020 2019-11-10 11.91 51,0006
2021 2021-02-18 11.231 24,5002,6
?
  Peak Gage-Height Qualification Codes.
?
  Peak Streamflow Qualification Codes.